Lemhi County Airport Salmon US
ICAO: KSMN
IATA: SMN
Category: Medium
Scheduled Services: No

Elevation: 4043 ft
TransAlt. 18000 ft.

Airport Communications:
AWOS 3:135.075
SALT LAKE CITY CNTR:132.4
BOISE RDO:122.55
CTAF/UNICOM:122.8

KSMN Zoom In..

Runways:

(A) RW 17 length 5150 ft width 60 ft
---- / hdg 172

(B) RW 35 length 5150 ft width 60 ft
---- / hdg 352

Location; KSMN
Day. 30 / Time. 21.56 Zulu
* Altimeter: 29.79
* Temperature: 26° c. 78.8°f.
* Wind from: 280° Speed 03 kn.
Dewpoint: 13° c.
Visibility: 10 Statute Miles.
Clouds: Clear (automated report).

KSMN 302156Z AUTO 28003KT 10SM CLR 26/13 A2979 RMK AO2 SLP058 T02610133


Wind From 280°
Speed 03 kn.

 
 
jpsmedia worldairports.se 2020   terms of use